Time;durP1;ratioP1;P1;durP2;ratioP2;P2;SDS_P1;SDS_P2;PMS_P1;PMS_P2;Temp;Humidity;BMP_temperature;BMP_pressure;BME280_temperature;BME280_humidity;BME280_pressure;Samples;Min_cycle;Max_cycle;Signal;HPM_P1;HPM_P2
2023/06/30 00:02:06;;;;;;;33.35;16.15;;;28.70;99.90;;;;;;4967612;23;20082;-50
2023/06/30 00:04:32;;;;;;;31.50;16.38;;;28.70;99.90;;;;;;4955438;29;20456;-50
2023/06/30 00:06:59;;;;;;;34.72;16.05;;;28.70;99.90;;;;;;4955599;28;20046;-49
2023/06/30 00:09:25;;;;;;;32.58;16.77;;;28.70;99.90;;;;;;4954178;29;20031;-49
2023/06/30 00:11:53;;;;;;;32.78;16.27;;;28.60;99.90;;;;;;4955515;28;20597;-50
2023/06/30 00:14:20;;;;;;;30.35;16.27;;;28.60;99.90;;;;;;4955207;28;20038;-50
2023/06/30 00:16:46;;;;;;;32.30;16.23;;;28.70;99.90;;;;;;4955312;28;20110;-50
2023/06/30 00:19:12;;;;;;;36.03;16.48;;;28.60;99.90;;;;;;4955314;28;20613;-50
2023/06/30 00:21:42;;;;;;;36.80;17.17;;;28.60;99.90;;;;;;4955504;28;20023;-50
2023/06/30 00:24:12;;;;;;;35.55;18.13;;;28.60;99.90;;;;;;4955557;28;20027;-50
2023/06/30 00:26:39;;;;;;;35.95;17.25;;;28.50;99.90;;;;;;4955361;28;20098;-50
2023/06/30 00:29:06;;;;;;;31.35;16.02;;;28.60;99.90;;;;;;4955435;28;20395;-52
2023/06/30 00:31:32;;;;;;;34.97;16.00;;;28.50;99.90;;;;;;4955060;28;20031;-51
2023/06/30 00:33:58;;;;;;;36.47;15.85;;;28.50;99.90;;;;;;4955043;29;20457;-51
2023/06/30 00:36:24;;;;;;;24.75;14.25;;;28.50;99.90;;;;;;4954968;28;20023;-52
2023/06/30 00:38:54;;;;;;;30.23;15.20;;;28.50;99.90;;;;;;4954996;29;20050;-51
2023/06/30 00:41:21;;;;;;;27.98;13.55;;;28.40;99.90;;;;;;4954892;28;20027;-51
2023/06/30 00:43:46;;;;;;;25.25;13.82;;;28.40;99.90;;;;;;4954860;28;20031;-51
2023/06/30 00:46:17;;;;;;;29.75;14.48;;;28.40;99.90;;;;;;4937501;29;20046;-51
2023/06/30 00:48:44;;;;;;;35.88;14.07;;;28.40;99.90;;;;;;4953588;29;20383;-51
2023/06/30 00:51:11;;;;;;;35.75;14.85;;;28.40;99.90;;;;;;4954955;28;20028;-52
2023/06/30 00:53:36;;;;;;;33.47;13.65;;;28.50;99.90;;;;;;4953894;29;20054;-51
2023/06/30 00:56:03;;;;;;;28.58;13.73;;;28.50;99.90;;;;;;4953514;29;20027;-52
2023/06/30 00:58:29;;;;;;;27.35;14.27;;;28.40;99.90;;;;;;4954702;28;20066;-51
2023/06/30 01:01:13;;;;;;;30.15;12.82;;;28.40;99.90;;;;;;4966693;23;20463;-58
2023/06/30 01:03:48;;;;;;;25.83;12.32;;;28.50;99.90;;;;;;4954678;29;20038;-55
2023/06/30 01:06:32;;;;;;;26.98;13.70;;;28.50;99.90;;;;;;4954418;28;20038;-56
2023/06/30 01:09:03;;;;;;;25.92;12.88;;;28.40;99.90;;;;;;4954335;28;20028;-56
2023/06/30 01:11:31;;;;;;;28.33;12.95;;;28.40;99.90;;;;;;4954347;28;20034;-56
2023/06/30 01:13:58;;;;;;;29.67;13.80;;;28.40;99.90;;;;;;4954499;28;20023;-57
2023/06/30 01:16:26;;;;;;;;;;;28.40;99.90;;;;;;4954705;28;20039;-57
2023/06/30 01:18:55;;;;;;;33.13;13.32;;;28.40;99.90;;;;;;4954365;28;19981;-57
2023/06/30 01:21:22;;;;;;;28.67;12.30;;;28.40;99.90;;;;;;4954361;28;20086;-56
2023/06/30 01:24:04;;;;;;;24.98;12.30;;;28.40;99.90;;;;;;4952871;29;20059;-56
2023/06/30 01:26:34;;;;;;;31.27;12.63;;;28.40;99.90;;;;;;4953663;28;20129;-56
2023/06/30 01:29:04;;;;;;;30.27;12.45;;;28.40;99.90;;;;;;4954274;28;20381;-56
2023/06/30 01:31:31;;;;;;;29.50;13.95;;;28.30;99.90;;;;;;4954253;28;20070;-56
2023/06/30 01:34:00;;;;;;;32.30;14.82;;;28.30;99.90;;;;;;4951472;28;20027;-55
2023/06/30 01:36:26;;;;;;;36.20;14.07;;;28.30;99.90;;;;;;4952356;28;20503;-56
2023/06/30 01:38:52;;;;;;;33.42;13.65;;;28.30;99.90;;;;;;4951448;29;20123;-57
2023/06/30 01:41:20;;;;;;;32.30;14.73;;;28.20;99.90;;;;;;4952542;28;20106;-56
2023/06/30 01:43:46;;;;;;;28.08;13.38;;;28.20;99.90;;;;;;4953485;28;20035;-56
2023/06/30 01:46:13;;;;;;;27.60;15.07;;;28.20;99.90;;;;;;4954087;28;20406;-56
2023/06/30 01:48:40;;;;;;;21.60;12.45;;;28.10;99.90;;;;;;4954283;28;20031;-56
2023/06/30 01:51:08;;;;;;;27.73;13.70;;;28.10;99.90;;;;;;4953991;28;20027;-55
2023/06/30 01:53:34;;;;;;;27.23;13.93;;;28.10;99.90;;;;;;4953966;28;20046;-56
2023/06/30 01:56:00;;;;;;;32.17;13.43;;;28.10;99.90;;;;;;4953917;28;20023;-56
2023/06/30 01:58:26;;;;;;;33.75;14.98;;;28.10;99.90;;;;;;4954046;28;20027;-57
2023/06/30 02:00:51;;;;;;;25.35;14.07;;;28.10;99.90;;;;;;4965711;23;20051;-55
2023/06/30 02:03:17;;;;;;;29.35;13.90;;;28.10;99.90;;;;;;4953783;28;20034;-55
2023/06/30 02:05:43;;;;;;;35.78;13.68;;;28.10;99.90;;;;;;4954068;28;20051;-54
2023/06/30 02:08:09;;;;;;;31.35;13.73;;;28.00;99.90;;;;;;4954050;29;20158;-54
2023/06/30 02:10:35;;;;;;;26.27;14.00;;;28.10;99.90;;;;;;4953855;28;20038;-54
2023/06/30 02:13:00;;;;;;;28.10;12.48;;;28.10;99.90;;;;;;4953952;28;20031;-54
2023/06/30 02:15:26;;;;;;;30.05;13.98;;;28.10;99.90;;;;;;4953838;28;20439;-53
2023/06/30 02:17:54;;;;;;;33.42;14.80;;;28.00;99.90;;;;;;4953789;29;20034;-54
2023/06/30 02:20:19;;;;;;;32.47;15.10;;;28.00;99.90;;;;;;4953914;28;20066;-54
2023/06/30 02:22:45;;;;;;;34.72;16.83;;;27.90;99.90;;;;;;4953864;28;20027;-55
2023/06/30 02:25:11;;;;;;;37.08;16.52;;;27.90;99.90;;;;;;4953946;29;20031;-54
2023/06/30 02:27:36;;;;;;;28.63;15.10;;;27.90;99.90;;;;;;4952362;29;20382;-54
2023/06/30 02:30:07;;;;;;;40.63;16.35;;;27.80;99.90;;;;;;4953856;28;20106;-52
2023/06/30 02:32:37;;;;;;;32.30;15.68;;;27.80;99.90;;;;;;4953761;28;20518;-53
2023/06/30 02:35:07;;;;;;;32.78;14.82;;;27.70;99.90;;;;;;4953727;28;20468;-54
2023/06/30 02:37:33;;;;;;;30.60;15.15;;;27.70;99.90;;;;;;4954095;28;20043;-53
2023/06/30 02:39:59;;;;;;;30.52;15.00;;;27.70;99.90;;;;;;4957260;29;20039;-56
2023/06/30 02:42:25;;;;;;;39.92;15.38;;;27.60;99.90;;;;;;4957103;28;20031;-55
2023/06/30 02:44:50;;;;;;;26.20;14.25;;;27.60;99.90;;;;;;4956969;28;20463;-55
2023/06/30 02:47:16;;;;;;;28.60;14.63;;;27.60;99.90;;;;;;4957048;29;20383;-55
2023/06/30 02:49:42;;;;;;;25.30;13.15;;;27.50;99.90;;;;;;4957209;28;20571;-57
2023/06/30 02:52:08;;;;;;;34.13;14.77;;;27.50;99.90;;;;;;4956975;28;20024;-55
2023/06/30 02:54:34;;;;;;;31.58;14.75;;;27.50;99.90;;;;;;4956863;28;20158;-54
2023/06/30 02:57:00;;;;;;;27.98;13.80;;;27.50;99.90;;;;;;4956794;28;20081;-55
2023/06/30 02:59:25;;;;;;;40.47;21.15;;;27.50;99.90;;;;;;4956693;28;20102;-54
2023/06/30 03:01:51;;;;;;;33.53;14.20;;;27.50;99.90;;;;;;4957053;28;20126;-54
2023/06/30 03:04:17;;;;;;;30.70;14.73;;;27.50;99.90;;;;;;4956997;28;20027;-53
2023/06/30 03:06:43;;;;;;;33.50;13.77;;;27.40;99.90;;;;;;4956897;28;20062;-54
2023/06/30 03:09:08;;;;;;;35.90;14.75;;;27.50;99.90;;;;;;4956625;28;20034;-53
2023/06/30 03:11:34;;;;;;;37.83;14.15;;;27.50;99.90;;;;;;4956761;28;20127;-54
2023/06/30 03:14:00;;;;;;;32.83;13.73;;;27.50;99.90;;;;;;4956393;28;20035;-53
2023/06/30 03:16:26;;;;;;;29.60;13.52;;;27.50;99.90;;;;;;4956595;28;20027;-53
2023/06/30 03:18:52;;;;;;;25.08;12.45;;;27.50;99.90;;;;;;4956425;29;20419;-54
2023/06/30 03:21:18;;;;;;;25.40;10.85;;;27.50;99.90;;;;;;4956532;28;20027;-57
2023/06/30 03:23:45;;;;;;;23.80;10.60;;;27.50;99.90;;;;;;4956544;28;20094;-55
2023/06/30 03:26:13;;;;;;;27.65;10.63;;;27.50;99.90;;;;;;4956284;28;20475;-53
2023/06/30 03:28:39;;;;;;;28.02;10.70;;;27.50;99.90;;;;;;4956274;28;20027;-54
2023/06/30 03:31:05;;;;;;;21.52;9.68;;;27.60;99.90;;;;;;4956217;29;20102;-54
2023/06/30 03:33:30;;;;;;;23.35;9.57;;;27.60;99.90;;;;;;4956194;28;20475;-55
2023/06/30 03:35:56;;;;;;;21.90;10.07;;;27.60;99.90;;;;;;4956220;28;20027;-53
2023/06/30 03:38:22;;;;;;;25.98;10.60;;;27.70;99.90;;;;;;4956119;28;20054;-55
2023/06/30 03:40:48;;;;;;;33.58;10.27;;;27.70;99.90;;;;;;4956324;28;20027;-53
2023/06/30 03:43:13;;;;;;;25.15;10.18;;;27.70;99.90;;;;;;4956017;28;20028;-59
2023/06/30 03:45:39;;;;;;;26.08;10.57;;;27.80;99.90;;;;;;4945516;28;20546;-55
2023/06/30 03:48:05;;;;;;;28.42;11.23;;;27.80;99.90;;;;;;4936857;29;20038;-52
2023/06/30 03:50:31;;;;;;;22.83;11.05;;;27.90;99.90;;;;;;4936194;29;20051;-55
2023/06/30 03:52:57;;;;;;;34.17;12.40;;;27.90;99.90;;;;;;4936602;29;20102;-56
2023/06/30 03:55:23;;;;;;;23.42;9.75;;;27.90;99.90;;;;;;4935830;29;20031;-56
2023/06/30 03:57:48;;;;;;;28.52;10.45;;;27.90;99.90;;;;;;4936748;29;20034;-55
2023/06/30 04:00:15;;;;;;;22.88;11.05;;;27.90;99.90;;;;;;4936490;29;20063;-54
2023/06/30 04:02:41;;;;;;;27.08;10.27;;;27.90;99.90;;;;;;4936892;29;20039;-54
2023/06/30 04:05:07;;;;;;;22.90;12.05;;;27.90;99.90;;;;;;4935186;29;20054;-53
2023/06/30 04:07:32;;;;;;;25.27;11.50;;;27.90;99.90;;;;;;4936482;29;20028;-54
2023/06/30 04:09:58;;;;;;;29.55;14.45;;;27.90;99.90;;;;;;4935080;29;20027;-54
2023/06/30 04:12:24;;;;;;;27.88;12.80;;;27.90;99.90;;;;;;4936244;29;20055;-54
2023/06/30 04:14:50;;;;;;;24.45;11.07;;;27.90;99.90;;;;;;4936391;29;20405;-54
2023/06/30 04:17:15;;;;;;;23.67;11.80;;;27.80;99.90;;;;;;4936065;29;20082;-54
2023/06/30 04:19:41;;;;;;;30.63;11.80;;;27.80;99.90;;;;;;4936284;29;20035;-55
2023/06/30 04:22:07;;;;;;;27.85;12.75;;;27.70;99.90;;;;;;4935112;29;20391;-55
2023/06/30 04:24:32;;;;;;;28.95;12.73;;;27.70;99.90;;;;;;4935042;29;20396;-54
2023/06/30 04:26:58;;;;;;;26.67;12.18;;;27.70;99.90;;;;;;4935357;29;20035;-55
2023/06/30 04:29:24;;;;;;;27.17;12.23;;;27.60;99.90;;;;;;4935117;29;20360;-54
2023/06/30 04:31:50;;;;;;;28.13;12.07;;;27.60;99.90;;;;;;4934035;29;20031;-55
2023/06/30 04:34:16;;;;;;;29.83;11.48;;;27.50;99.90;;;;;;4935762;29;20111;-54
2023/06/30 04:36:42;;;;;;;27.17;11.25;;;27.50;99.90;;;;;;4934984;29;20343;-53
2023/06/30 04:39:07;;;;;;;27.20;11.95;;;27.50;99.90;;;;;;4935739;29;20047;-54
2023/06/30 04:41:33;;;;;;;30.65;13.23;;;27.40;99.90;;;;;;4935884;29;20106;-53
2023/06/30 04:43:59;;;;;;;25.73;11.32;;;27.40;99.90;;;;;;4935786;29;20087;-53
2023/06/30 04:46:26;;;;;;;23.90;11.07;;;27.30;99.90;;;;;;4935691;29;20047;-54
2023/06/30 04:48:53;;;;;;;24.90;11.73;;;27.30;99.90;;;;;;4934600;29;20075;-53
2023/06/30 04:51:19;;;;;;;29.90;12.27;;;27.30;99.90;;;;;;4934640;29;20032;-53
2023/06/30 04:53:45;;;;;;;25.27;10.63;;;27.20;99.90;;;;;;4935587;29;20023;-53
2023/06/30 04:56:10;;;;;;;29.92;12.07;;;27.20;99.90;;;;;;4935471;29;20032;-53
2023/06/30 04:58:36;;;;;;;37.80;13.18;;;27.20;99.90;;;;;;4934363;29;20059;-56
2023/06/30 05:01:04;;;;;;;27.30;10.93;;;27.20;99.90;;;;;;4933816;29;20047;-53
2023/06/30 05:03:30;;;;;;;26.77;11.93;;;27.20;99.90;;;;;;4935305;29;20500;-54
2023/06/30 05:05:57;;;;;;;35.22;12.85;;;27.20;99.90;;;;;;4935333;29;20044;-53
2023/06/30 05:08:23;;;;;;;26.35;11.32;;;27.10;99.90;;;;;;4935533;29;20040;-53
2023/06/30 05:10:49;;;;;;;26.88;11.98;;;27.20;99.90;;;;;;4934583;29;20039;-53
2023/06/30 05:13:15;;;;;;;25.48;11.05;;;27.10;99.90;;;;;;4935301;29;20052;-53
2023/06/30 05:15:41;;;;;;;31.48;12.00;;;27.10;99.90;;;;;;4918185;29;20030;-53
2023/06/30 05:18:07;;;;;;;25.00;11.80;;;27.10;99.90;;;;;;4935217;29;20435;-54
2023/06/30 05:20:33;;;;;;;33.33;14.80;;;27.10;99.90;;;;;;4935229;29;20460;-53
2023/06/30 05:23:00;;;;;;;28.63;13.07;;;27.10;99.90;;;;;;4935244;29;20023;-54
2023/06/30 05:25:25;;;;;;;27.35;12.93;;;27.10;99.90;;;;;;4934919;29;20310;-53
2023/06/30 05:27:51;;;;;;;30.83;12.30;;;27.10;99.90;;;;;;4935399;29;20036;-53
2023/06/30 05:30:18;;;;;;;32.17;14.10;;;27.10;99.90;;;;;;4935100;29;20111;-53
2023/06/30 05:32:44;;;;;;;25.23;12.43;;;27.10;99.90;;;;;;4935132;29;20049;-53
2023/06/30 05:35:10;;;;;;;36.35;13.65;;;27.10;99.90;;;;;;4935113;29;20472;-54
2023/06/30 05:37:36;;;;;;;25.95;13.15;;;27.10;99.90;;;;;;4934961;29;20023;-53
2023/06/30 05:40:02;;;;;;;32.72;15.45;;;27.10;99.90;;;;;;4934898;29;20028;-53
2023/06/30 05:42:28;;;;;;;37.45;16.13;;;27.10;99.90;;;;;;4935060;29;20055;-54
2023/06/30 05:44:54;;;;;;;30.05;13.20;;;27.10;99.90;;;;;;4935168;29;20023;-53
2023/06/30 05:47:20;;;;;;;38.53;18.65;;;27.10;99.90;;;;;;4934755;29;20028;-53
2023/06/30 05:49:46;;;;;;;40.78;22.30;;;27.10;99.90;;;;;;4934987;29;20136;-55
2023/06/30 05:52:12;;;;;;;38.95;15.90;;;27.10;99.90;;;;;;4934817;29;20047;-54
2023/06/30 05:54:37;;;;;;;25.63;12.70;;;27.10;99.90;;;;;;4934837;29;20068;-55
2023/06/30 05:57:03;;;;;;;32.50;13.35;;;27.20;99.90;;;;;;4934775;29;20102;-54
2023/06/30 05:59:30;;;;;;;27.05;12.57;;;27.10;99.90;;;;;;4933550;29;20054;-54
2023/06/30 06:01:56;;;;;;;33.80;13.03;;;27.10;99.90;;;;;;4935038;29;20048;-54
2023/06/30 06:04:22;;;;;;;31.30;12.90;;;27.10;99.90;;;;;;4933994;29;20031;-54
2023/06/30 06:06:48;;;;;;;24.83;12.20;;;27.10;99.90;;;;;;4934758;29;20539;-54
2023/06/30 06:09:14;;;;;;;30.33;13.15;;;27.00;99.90;;;;;;4934662;29;20569;-55
2023/06/30 06:11:40;;;;;;;28.02;12.82;;;27.00;99.90;;;;;;4933324;29;20380;-54
2023/06/30 06:14:05;;;;;;;28.25;12.80;;;27.00;99.90;;;;;;4937540;29;20060;-55
2023/06/30 06:16:31;;;;;;;29.85;13.52;;;27.00;99.90;;;;;;4938465;29;20106;-55
2023/06/30 06:18:57;;;;;;;24.80;13.10;;;27.00;99.90;;;;;;4938482;29;20493;-55
2023/06/30 06:21:27;;;;;;;53.08;16.10;;;27.00;99.90;;;;;;4938563;29;20048;-55
2023/06/30 06:23:54;;;;;;;27.83;12.75;;;27.00;99.90;;;;;;4938408;29;20039;-54
2023/06/30 06:26:19;;;;;;;27.80;12.17;;;27.00;99.90;;;;;;4937980;29;20518;-54
2023/06/30 06:28:45;;;;;;;32.20;12.32;;;27.00;99.90;;;;;;4938160;29;20258;-54
2023/06/30 06:31:11;;;;;;;35.42;15.10;;;27.00;99.90;;;;;;4938207;29;20031;-54
2023/06/30 06:33:37;;;;;;;30.15;14.10;;;27.00;99.90;;;;;;4938034;29;20387;-56
2023/06/30 06:36:03;;;;;;;32.00;17.10;;;27.00;99.90;;;;;;4938037;29;20468;-55
2023/06/30 06:38:28;;;;;;;40.78;13.52;;;27.10;99.90;;;;;;4938101;29;20051;-55
2023/06/30 06:40:54;;;;;;;31.17;13.40;;;27.10;99.90;;;;;;4938256;29;20059;-57
2023/06/30 06:43:25;;;;;;;30.63;14.18;;;27.10;99.90;;;;;;4937860;29;20028;-56
2023/06/30 06:45:51;;;;;;;34.33;13.15;;;27.10;99.90;;;;;;4937903;29;20083;-55
2023/06/30 06:48:21;;;;;;;29.60;13.18;;;27.10;99.90;;;;;;4937798;29;20035;-56
2023/06/30 06:50:52;;;;;;;26.20;13.70;;;27.20;99.90;;;;;;4936490;29;20389;-55
2023/06/30 06:53:21;;;;;;;26.92;12.98;;;27.20;99.90;;;;;;4936470;29;20079;-56
2023/06/30 06:55:48;;;;;;;26.33;12.73;;;27.30;99.90;;;;;;4937629;29;20428;-55
2023/06/30 06:58:14;;;;;;;;;;;27.30;99.90;;;;;;4938019;29;20511;-55
2023/06/30 07:00:40;;;;;;;31.40;12.23;;;27.30;99.90;;;;;;4937348;29;19919;-54
2023/06/30 07:03:06;;;;;;;27.35;13.48;;;27.30;99.90;;;;;;4937384;29;20035;-56
2023/06/30 07:05:31;;;;;;;31.25;12.30;;;27.30;99.90;;;;;;4948186;29;20038;-55
2023/06/30 07:07:57;;;;;;;32.80;12.63;;;27.30;99.90;;;;;;4954164;29;20039;-56
2023/06/30 07:10:23;;;;;;;31.73;14.77;;;27.30;99.90;;;;;;4954537;28;20143;-56
2023/06/30 07:12:49;;;;;;;28.55;12.65;;;27.30;99.90;;;;;;4955854;28;20484;-55
2023/06/30 07:15:15;;;;;;;26.80;11.95;;;27.30;99.90;;;;;;4955592;28;20098;-56
2023/06/30 07:17:41;;;;;;;31.23;14.82;;;27.30;99.90;;;;;;4956534;28;20023;-55
2023/06/30 07:20:07;;;;;;;32.88;16.20;;;27.30;99.90;;;;;;4955386;29;20027;-55
2023/06/30 07:22:33;;;;;;;31.48;12.15;;;27.40;99.90;;;;;;4956427;28;20023;-56
2023/06/30 07:25:02;;;;;;;26.17;10.90;;;27.30;99.90;;;;;;4955670;28;20031;-55
2023/06/30 07:27:28;;;;;;;31.80;12.13;;;27.40;99.90;;;;;;4956399;28;20024;-55
2023/06/30 07:29:54;;;;;;;30.37;11.93;;;27.40;99.90;;;;;;4939029;29;20031;-55
2023/06/30 07:32:20;;;;;;;36.25;13.15;;;27.40;99.90;;;;;;4939034;29;20451;-55
2023/06/30 07:34:46;;;;;;;31.67;12.05;;;27.40;99.90;;;;;;4956245;28;20488;-55
2023/06/30 07:37:11;;;;;;;27.35;12.10;;;27.40;99.90;;;;;;4956157;28;20031;-55
2023/06/30 07:39:37;;;;;;;37.78;12.15;;;27.50;99.90;;;;;;4956060;28;20033;-54
2023/06/30 07:42:03;;;;;;;36.92;12.52;;;27.50;99.90;;;;;;4954869;29;20132;-54
2023/06/30 07:44:29;;;;;;;24.83;11.18;;;27.60;99.90;;;;;;4956097;28;20027;-54
2023/06/30 07:46:54;;;;;;;23.25;10.18;;;27.60;99.90;;;;;;4955821;28;20039;-54
2023/06/30 07:49:21;;;;;;;28.30;11.43;;;27.60;99.90;;;;;;4955816;28;20024;-53
2023/06/30 07:51:47;;;;;;;41.60;12.32;;;27.60;99.90;;;;;;4955986;28;20027;-53
2023/06/30 07:54:15;;;;;;;29.65;9.93;;;27.70;99.90;;;;;;4955870;28;20042;-53
2023/06/30 07:56:40;;;;;;;24.15;9.55;;;27.70;99.90;;;;;;4955758;28;20024;-54
2023/06/30 07:59:07;;;;;;;24.67;10.15;;;27.70;99.90;;;;;;4954468;29;20038;-53
2023/06/30 08:01:32;;;;;;;28.05;10.38;;;27.70;99.90;;;;;;4955533;28;20110;-54
2023/06/30 08:03:58;;;;;;;25.98;10.18;;;27.70;99.90;;;;;;4955895;28;20468;-55
2023/06/30 08:06:25;;;;;;;25.08;10.52;;;27.70;99.90;;;;;;4955589;28;20038;-55
2023/06/30 08:08:51;;;;;;;29.00;9.13;;;27.70;99.90;;;;;;4954271;29;20357;-55
2023/06/30 08:11:16;;;;;;;19.92;8.63;;;27.80;99.90;;;;;;4955509;28;20090;-55
2023/06/30 08:13:44;;;;;;;;;;;27.70;99.90;;;;;;4955607;28;20150;-55
2023/06/30 08:16:10;;;;;;;29.27;9.82;;;27.70;99.90;;;;;;4955217;29;20406;-55
2023/06/30 08:18:35;;;;;;;24.25;9.57;;;27.80;99.90;;;;;;4954124;29;20023;-54
2023/06/30 08:21:02;;;;;;;24.38;10.30;;;27.80;99.90;;;;;;4955443;29;20054;-54
2023/06/30 08:23:28;;;;;;;27.60;8.63;;;27.80;99.90;;;;;;4955530;28;20020;-53
2023/06/30 08:25:55;;;;;;;28.33;8.82;;;27.80;99.90;;;;;;4955108;29;20105;-54
2023/06/30 08:28:21;;;;;;;19.17;8.55;;;27.90;99.90;;;;;;4955032;28;20464;-53
2023/06/30 08:30:48;;;;;;;22.42;8.15;;;27.80;99.90;;;;;;4955045;28;20535;-53
2023/06/30 08:33:13;;;;;;;22.95;7.40;;;27.90;99.90;;;;;;4953922;29;20050;-54
2023/06/30 08:35:39;;;;;;;26.83;6.93;;;27.90;99.90;;;;;;4955091;28;20074;-54
2023/06/30 08:38:05;;;;;;;15.95;7.35;;;27.90;99.90;;;;;;4953553;29;20023;-54
2023/06/30 08:40:31;;;;;;;15.50;6.82;;;27.90;99.90;;;;;;4954660;29;20038;-53
2023/06/30 08:43:05;;;;;;;16.23;6.68;;;27.90;99.90;;;;;;4955172;29;20054;-54
2023/06/30 08:45:31;;;;;;;21.08;6.85;;;27.90;99.90;;;;;;4954757;28;20192;-54
2023/06/30 08:48:04;;;;;;;19.30;6.45;;;28.00;99.90;;;;;;4953449;29;20118;-53
2023/06/30 08:50:34;;;;;;;20.52;6.35;;;28.00;99.90;;;;;;4954635;28;20034;-53
2023/06/30 08:53:01;;;;;;;23.10;7.10;;;28.00;99.90;;;;;;4954884;28;20038;-54
2023/06/30 08:55:27;;;;;;;19.17;6.43;;;28.00;99.90;;;;;;4954735;28;20023;-54
2023/06/30 08:57:57;;;;;;;33.55;6.88;;;28.00;99.90;;;;;;4954320;28;20027;-54
2023/06/30 09:00:26;;;;;;;19.02;6.72;;;28.10;99.90;;;;;;4954428;28;20031;-53
2023/06/30 09:02:56;;;;;;;16.13;7.15;;;28.20;99.90;;;;;;4954584;28;20043;-54
2023/06/30 09:05:27;;;;;;;18.48;7.13;;;28.20;99.90;;;;;;4953211;29;20034;-54
2023/06/30 09:07:55;;;;;;;24.48;7.10;;;28.30;99.90;;;;;;4954475;28;20031;-53
2023/06/30 09:10:27;;;;;;;19.17;6.88;;;28.30;99.90;;;;;;4954358;28;20034;-55
2023/06/30 09:12:57;;;;;;;23.85;8.15;;;28.30;99.90;;;;;;4954502;28;20031;-54
2023/06/30 09:15:24;;;;;;;20.85;7.82;;;28.30;99.90;;;;;;4953236;29;20110;-55
2023/06/30 09:17:52;;;;;;;25.65;11.48;;;28.40;99.90;;;;;;4953110;29;20027;-57
2023/06/30 09:20:20;;;;;;;20.15;9.35;;;28.50;99.90;;;;;;4952989;29;20424;-55
2023/06/30 09:22:46;;;;;;;21.95;9.07;;;28.50;99.90;;;;;;4954464;28;20556;-51
2023/06/30 09:25:27;;;;;;;27.48;10.13;;;28.60;99.90;;;;;;4954203;28;20147;-54
2023/06/30 09:27:55;;;;;;;26.58;8.45;;;28.60;99.90;;;;;;4954229;29;20039;-53
2023/06/30 09:30:45;;;;;;;25.75;10.32;;;28.70;99.90;;;;;;4954390;28;20023;-53
2023/06/30 09:33:15;;;;;;;20.77;8.40;;;28.70;99.90;;;;;;4943284;28;20071;-52
2023/06/30 09:35:46;;;;;;;24.40;9.73;;;28.80;99.90;;;;;;4954103;28;20015;-53
2023/06/30 09:38:14;;;;;;;18.05;8.23;;;28.80;99.90;;;;;;4954108;28;20024;-52
2023/06/30 09:40:50;;;;;;;19.65;8.80;;;28.90;99.90;;;;;;4954123;28;20055;-51
2023/06/30 09:43:21;;;;;;;24.75;8.93;;;28.90;99.90;;;;;;4952838;29;20035;-52
2023/06/30 09:45:55;;;;;;;20.02;9.27;;;28.90;99.90;;;;;;4953844;28;20158;-54
2023/06/30 09:48:27;;;;;;;22.98;8.93;;;29.00;99.90;;;;;;4956015;28;20471;-54
2023/06/30 09:50:53;;;;;;;18.08;8.18;;;29.00;99.90;;;;;;4952634;28;20042;-53
2023/06/30 09:53:19;;;;;;;21.05;7.78;;;29.00;99.90;;;;;;4956997;28;20031;-54
2023/06/30 09:55:48;;;;;;;16.98;8.10;;;29.10;99.90;;;;;;4956013;28;20031;-53
2023/06/30 09:58:15;;;;;;;21.52;9.00;;;29.10;99.90;;;;;;4956701;28;20027;-53
2023/06/30 10:00:41;;;;;;;20.30;8.70;;;29.10;99.90;;;;;;4956786;28;20040;-53
2023/06/30 10:03:08;;;;;;;26.23;8.23;;;29.20;99.90;;;;;;4958060;28;20078;-54
2023/06/30 10:05:35;;;;;;;24.42;9.23;;;29.20;99.90;;;;;;4957854;28;20039;-53
2023/06/30 10:08:02;;;;;;;21.20;8.93;;;29.20;99.90;;;;;;4957734;28;20024;-53
2023/06/30 10:10:31;;;;;;;20.98;7.60;;;29.20;99.90;;;;;;4957564;28;20429;-53
2023/06/30 10:12:58;;;;;;;21.63;7.60;;;29.20;99.90;;;;;;4957575;28;20061;-53
2023/06/30 10:15:25;;;;;;;18.52;8.82;;;29.30;99.90;;;;;;4956310;29;20023;-53
2023/06/30 10:17:57;;;;;;;16.77;8.27;;;29.30;99.90;;;;;;4957490;28;20035;-53
2023/06/30 10:20:22;;;;;;;19.98;8.85;;;29.30;99.90;;;;;;4957414;28;20030;-53
2023/06/30 10:22:49;;;;;;;17.45;8.50;;;29.30;99.90;;;;;;4957418;29;20487;-53
2023/06/30 10:25:20;;;;;;;21.20;8.40;;;29.40;99.90;;;;;;4957259;28;20039;-54
2023/06/30 10:27:47;;;;;;;16.85;8.38;;;29.40;99.90;;;;;;4957210;28;20411;-53
2023/06/30 10:30:14;;;;;;;19.33;9.15;;;29.40;99.90;;;;;;4957352;28;20051;-54
2023/06/30 10:32:40;;;;;;;24.27;9.37;;;29.50;99.90;;;;;;4957472;28;20031;-54
2023/06/30 10:35:09;;;;;;;17.48;8.73;;;29.50;99.90;;;;;;4957390;28;20372;-53
2023/06/30 10:37:35;;;;;;;17.67;7.97;;;29.50;99.90;;;;;;4957138;28;20041;-53
2023/06/30 10:40:06;;;;;;;14.20;7.63;;;29.50;99.90;;;;;;4956943;28;20027;-53
2023/06/30 10:42:36;;;;;;;17.73;7.78;;;29.60;99.90;;;;;;4956851;28;20050;-53
2023/06/30 10:45:02;;;;;;;21.65;9.02;;;29.60;99.90;;;;;;4956924;28;20106;-53
2023/06/30 10:47:28;;;;;;;22.75;8.05;;;29.60;99.90;;;;;;4957009;29;20027;-54
2023/06/30 10:49:54;;;;;;;17.50;8.02;;;29.60;99.90;;;;;;4956966;28;20099;-53
2023/06/30 10:52:28;;;;;;;16.90;8.60;;;29.70;99.90;;;;;;4956755;28;20027;-53
2023/06/30 10:54:54;;;;;;;21.30;9.55;;;29.70;99.90;;;;;;4956730;28;20024;-53
2023/06/30 10:57:24;;;;;;;18.85;8.43;;;29.70;99.90;;;;;;4956905;28;20023;-52
2023/06/30 11:00:07;;;;;;;18.70;8.45;;;29.70;99.90;;;;;;4955444;28;20480;-52
2023/06/30 11:02:38;;;;;;;17.80;7.90;;;29.70;99.90;;;;;;4956505;28;20412;-52
2023/06/30 11:05:22;;;;;;;18.67;8.07;;;29.80;99.90;;;;;;4956517;28;20436;-53
2023/06/30 11:07:52;;;;;;;17.13;7.53;;;29.80;99.90;;;;;;4955404;29;20027;-54
2023/06/30 11:10:33;;;;;;;17.42;8.80;;;29.80;99.90;;;;;;4956557;28;20038;-53
2023/06/30 11:13:00;;;;;;;20.50;8.18;;;29.90;99.90;;;;;;4956628;28;20031;-54
2023/06/30 11:15:27;;;;;;;;;;;29.80;99.90;;;;;;4956885;28;20113;-51
2023/06/30 11:17:52;;;;;;;13.10;7.80;;;29.90;99.90;;;;;;4956392;28;19907;-54
2023/06/30 11:20:23;;;;;;;19.10;8.20;;;29.90;99.90;;;;;;4955117;29;20031;-54
2023/06/30 11:23:05;;;;;;;15.82;7.10;;;29.90;99.90;;;;;;4956570;28;20031;-54
2023/06/30 11:25:33;;;;;;;15.80;8.40;;;29.90;99.90;;;;;;4956132;28;20494;-52
2023/06/30 11:28:04;;;;;;;17.48;8.27;;;29.90;99.90;;;;;;4956198;28;20030;-52
2023/06/30 11:30:35;;;;;;;17.88;8.20;;;29.90;99.90;;;;;;4956255;28;20019;-53
2023/06/30 11:33:03;;;;;;;18.10;7.40;;;30.00;99.90;;;;;;4956002;28;20039;-53
2023/06/30 11:35:31;;;;;;;20.85;9.18;;;30.00;99.90;;;;;;4956165;28;20106;-52
2023/06/30 11:37:57;;;;;;;15.45;7.13;;;30.00;99.90;;;;;;4955958;28;20119;-50
2023/06/30 11:40:23;;;;;;;13.82;6.88;;;30.00;99.90;;;;;;4955818;29;20062;-52
2023/06/30 11:42:51;;;;;;;19.63;7.57;;;30.00;99.90;;;;;;4956111;29;20042;-55
2023/06/30 11:45:20;;;;;;;13.27;6.75;;;30.10;99.90;;;;;;4955885;28;20031;-55
2023/06/30 11:47:51;;;;;;;19.35;7.03;;;30.10;99.90;;;;;;4956098;28;20114;-51
2023/06/30 11:50:18;;;;;;;15.23;6.90;;;30.10;99.90;;;;;;4955752;28;20057;-52
2023/06/30 11:52:48;;;;;;;;;;;30.10;99.90;;;;;;4954998;29;20392;-53
2023/06/30 11:55:14;;;;;;;16.75;6.47;;;30.20;99.90;;;;;;4955818;28;19907;-52
2023/06/30 11:57:42;;;;;;;13.82;5.93;;;30.20;99.90;;;;;;4954712;29;20038;-53
2023/06/30 12:00:12;;;;;;;15.77;5.70;;;30.20;99.90;;;;;;4955425;28;20030;-53
2023/06/30 12:02:42;;;;;;;14.65;6.30;;;30.20;99.90;;;;;;4955352;28;20471;-53
2023/06/30 12:05:21;;;;;;;16.10;5.80;;;30.20;99.90;;;;;;4955227;28;20078;-51
2023/06/30 12:07:49;;;;;;;16.70;6.38;;;30.20;99.90;;;;;;4954179;29;20038;-52
2023/06/30 12:10:15;;;;;;;13.77;5.65;;;30.20;99.90;;;;;;4955194;28;20090;-53
2023/06/30 12:12:41;;;;;;;19.52;6.00;;;30.20;99.90;;;;;;4955609;28;20356;-53
2023/06/30 12:15:10;;;;;;;22.00;4.93;;;30.30;99.90;;;;;;4955327;29;20495;-53
2023/06/30 12:17:43;;;;;;;15.35;5.57;;;30.30;99.90;;;;;;4955169;28;20031;-53
2023/06/30 12:20:10;;;;;;;13.30;5.57;;;30.30;99.90;;;;;;4955212;28;20106;-53
2023/06/30 12:22:41;;;;;;;12.95;5.78;;;30.30;99.90;;;;;;4955230;28;20035;-53
2023/06/30 12:25:11;;;;;;;16.92;6.57;;;30.30;99.90;;;;;;4955062;28;20070;-54
2023/06/30 12:27:43;;;;;;;13.38;4.63;;;30.20;99.90;;;;;;4955159;28;20031;-53
2023/06/30 12:30:15;;;;;;;15.85;5.18;;;30.20;99.90;;;;;;4954841;29;20031;-54
2023/06/30 12:32:41;;;;;;;13.25;4.80;;;30.20;99.90;;;;;;4955008;28;20038;-53
2023/06/30 12:35:08;;;;;;;16.65;6.07;;;30.20;99.90;;;;;;4951094;29;20557;-53